createdAt,value
2023-02-26T00:01:29.771Z,102518.28
2023-02-26T00:03:59.966Z,102519.31
2023-02-26T00:06:28.826Z,102520.19
2023-02-26T00:08:56.360Z,102522.06
2023-02-26T00:11:23.559Z,102524.72
2023-02-26T00:13:51.354Z,102523.97
2023-02-26T00:16:29.410Z,102531.94
2023-02-26T00:19:00.624Z,102527.59
2023-02-26T00:21:28.110Z,102524.91
2023-02-26T00:23:55.799Z,102518.84
2023-02-26T00:26:24.041Z,102530.38
2023-02-26T00:28:51.375Z,102531.34
2023-02-26T00:31:21.284Z,102539.34
2023-02-26T00:33:48.498Z,102538.47
2023-02-26T00:36:28.322Z,102546.41
2023-02-26T00:39:07.207Z,102543.00
2023-02-26T00:41:34.418Z,102547.44
2023-02-26T00:44:01.649Z,102555.41
2023-02-26T00:46:33.225Z,102560.75
2023-02-26T00:49:23.366Z,102564.28
2023-02-26T00:51:56.532Z,102560.00
2023-02-26T00:54:26.638Z,102565.25
2023-02-26T00:56:54.791Z,102563.53
2023-02-26T00:59:22.342Z,102562.66
2023-02-26T01:01:50.204Z,102568.84
2023-02-26T01:04:19.652Z,102564.47
2023-02-26T01:06:54.041Z,102582.13
2023-02-26T01:09:30.115Z,102587.41
2023-02-26T01:12:03.632Z,102589.19
2023-02-26T01:14:32.652Z,102585.72
2023-02-26T01:17:05.300Z,102594.56
2023-02-26T01:20:05.688Z,102592.81
2023-02-26T01:23:02.266Z,102599.03
2023-02-26T01:25:51.558Z,102606.91
2023-02-26T01:28:18.969Z,102624.56
2023-02-26T01:30:46.395Z,102612.28
2023-02-26T01:33:19.444Z,102621.09
2023-02-26T01:35:54.098Z,102627.25
2023-02-26T01:38:31.509Z,102622.91
2023-02-26T01:41:16.508Z,102633.41
2023-02-26T01:44:01.465Z,102634.31
2023-02-26T01:46:49.969Z,102630.03
2023-02-26T01:49:19.437Z,102626.44
2023-02-26T01:51:56.489Z,102628.28
2023-02-26T01:54:36.439Z,102632.66
2023-02-26T01:57:09.629Z,102623.84
2023-02-26T01:59:43.836Z,102626.53
2023-02-26T02:02:13.567Z,102620.34
2023-02-26T02:04:42.254Z,102616.81
2023-02-26T02:07:10.040Z,102624.81
2023-02-26T02:09:37.040Z,102622.16
2023-02-26T02:12:15.852Z,102623.94
2023-02-26T02:14:51.371Z,102615.94
2023-02-26T02:17:42.519Z,102620.41
2023-02-26T02:20:21.359Z,102630.97
2023-02-26T02:23:12.394Z,102630.09
2023-02-26T02:26:00.875Z,102633.63
2023-02-26T02:28:42.761Z,102634.59
2023-02-26T02:31:25.647Z,102644.22
2023-02-26T02:34:21.595Z,102634.50
2023-02-26T02:37:00.189Z,102641.56
2023-02-26T02:39:32.188Z,102649.50
2023-02-26T02:42:20.615Z,102660.09
2023-02-26T02:44:53.825Z,102655.72
2023-02-26T02:47:23.191Z,102660.09
2023-02-26T02:50:27.127Z,102664.50
2023-02-26T02:52:57.110Z,102670.69
2023-02-26T02:55:33.238Z,102670.69
2023-02-26T02:58:17.593Z,102667.13
2023-02-26T03:00:55.170Z,102666.22
2023-02-26T03:03:27.658Z,102660.91
2023-02-26T03:05:54.714Z,102656.50
2023-02-26T03:08:26.937Z,102652.16
2023-02-26T03:10:53.862Z,102656.56
2023-02-26T03:13:23.334Z,102663.56
2023-02-26T03:15:53.098Z,102663.56
2023-02-26T03:18:52.708Z,102661.78
2023-02-26T03:21:38.323Z,102667.06
2023-02-26T03:24:15.425Z,102663.50
2023-02-26T03:26:48.530Z,102663.50
2023-02-26T03:29:31.990Z,102668.78
2023-02-26T03:32:05.380Z,102676.72
2023-02-26T03:34:44.195Z,102678.53
2023-02-26T03:37:41.816Z,102677.59
2023-02-26T03:40:31.791Z,102674.06
2023-02-26T03:43:19.177Z,102672.28
2023-02-26T03:45:49.601Z,102680.19
2023-02-26T03:48:21.868Z,102678.44
2023-02-26T03:50:52.631Z,102678.44
2023-02-26T03:53:24.708Z,102695.09
2023-02-26T03:55:57.793Z,102688.13
2023-02-26T03:58:24.948Z,102688.03
2023-02-26T04:01:01.703Z,102688.94
2023-02-26T04:03:42.500Z,102699.56
2023-02-26T04:06:09.592Z,102703.84
2023-02-26T04:08:36.981Z,102708.25
2023-02-26T04:11:11.528Z,102711.75
2023-02-26T04:13:38.788Z,102703.81
2023-02-26T04:16:06.013Z,102711.75
2023-02-26T04:18:32.856Z,102707.38
2023-02-26T04:20:59.774Z,102717.00
2023-02-26T04:23:26.712Z,102713.44
2023-02-26T04:25:53.553Z,102717.84
2023-02-26T04:28:20.342Z,102716.97
2023-02-26T04:30:47.286Z,102709.91
2023-02-26T04:33:15.995Z,102717.78
2023-02-26T04:35:43.458Z,102717.78
2023-02-26T04:38:10.270Z,102719.59
2023-02-26T04:40:37.202Z,102728.38
2023-02-26T04:43:05.126Z,102724.03
2023-02-26T04:45:31.967Z,102724.00
2023-02-26T04:47:58.855Z,102731.03
2023-02-26T04:50:25.805Z,102734.53
2023-02-26T04:52:53.016Z,102740.72
2023-02-26T04:55:19.878Z,102743.38
2023-02-26T04:57:47.110Z,102751.31
2023-02-26T05:00:15.583Z,102741.59
2023-02-26T05:02:42.517Z,102753.88
2023-02-26T05:05:09.721Z,102746.81
2023-02-26T05:07:36.715Z,102750.34
2023-02-26T05:10:05.311Z,102746.84
2023-02-26T05:12:32.137Z,102755.59
2023-02-26T05:14:59.006Z,102759.13
2023-02-26T05:17:25.801Z,102755.59
2023-02-26T05:19:52.563Z,102757.34
2023-02-26T05:22:19.368Z,102763.47
2023-02-26T05:24:46.413Z,102765.28
2023-02-26T05:27:13.541Z,102763.53
2023-02-26T05:29:42.352Z,102769.63
2023-02-26T05:32:09.270Z,102779.28
2023-02-26T05:34:36.137Z,102781.97
2023-02-26T05:37:03.750Z,102782.84
2023-02-26T05:39:30.551Z,102775.81
2023-02-26T05:41:57.424Z,102779.34
2023-02-26T05:44:24.407Z,102783.69
2023-02-26T05:46:51.311Z,102784.56
2023-02-26T05:49:18.119Z,102790.75
2023-02-26T05:51:44.975Z,102781.97
2023-02-26T05:54:11.919Z,102790.69
2023-02-26T05:56:38.778Z,102795.97
2023-02-26T05:59:05.592Z,102800.41
2023-02-26T06:01:32.519Z,102788.94
2023-02-26T06:03:59.332Z,102787.16
2023-02-26T06:06:27.419Z,102790.69
2023-02-26T06:08:54.378Z,102788.94
2023-02-26T06:11:21.284Z,102795.03
2023-02-26T06:13:48.168Z,102798.56
2023-02-26T06:16:15.085Z,102792.38
2023-02-26T06:18:42.006Z,102795.03
2023-02-26T06:21:09.681Z,102795.09
2023-02-26T06:23:36.653Z,102802.16
2023-02-26T06:26:03.684Z,102799.44
2023-02-26T06:28:30.606Z,102806.59
2023-02-26T06:30:57.715Z,102799.50
2023-02-26T06:33:24.863Z,102796.88
2023-02-26T06:35:51.727Z,102807.44
2023-02-26T06:38:18.923Z,102812.63
2023-02-26T06:40:48.008Z,102814.47
2023-02-26T06:43:14.872Z,102816.22
2023-02-26T06:45:41.770Z,102815.25
2023-02-26T06:48:08.680Z,102819.63
2023-02-26T06:50:35.562Z,102812.56
2023-02-26T06:53:02.419Z,102821.38
2023-02-26T06:55:29.289Z,102814.38
2023-02-26T06:57:57.543Z,102824.09
2023-02-26T07:00:26.013Z,102821.50
2023-02-26T07:02:53.431Z,102826.72
2023-02-26T07:05:20.364Z,102842.56
2023-02-26T07:07:47.506Z,102836.44
2023-02-26T07:10:14.481Z,102846.97
2023-02-26T07:12:41.359Z,102841.75
2023-02-26T07:15:09.013Z,102839.09
2023-02-26T07:17:35.912Z,102842.44
2023-02-26T07:20:06.848Z,102842.50
2023-02-26T07:22:34.235Z,102852.84
2023-02-26T07:25:01.072Z,102851.72
2023-02-26T07:27:28.227Z,102861.16
2023-02-26T07:29:55.074Z,102864.59
2023-02-26T07:32:22.782Z,102865.34
2023-02-26T07:34:49.775Z,102870.59
2023-02-26T07:37:16.683Z,102888.19
2023-02-26T07:39:43.635Z,102883.72
2023-02-26T07:42:10.818Z,102880.19
2023-02-26T07:44:37.744Z,102880.06
2023-02-26T07:47:04.863Z,102891.38
2023-02-26T07:49:32.841Z,102883.53
2023-02-26T07:52:00.125Z,102888.72
2023-02-26T07:54:28.196Z,102889.34
2023-02-26T07:56:55.445Z,102888.31
2023-02-26T07:59:22.415Z,102889.03
2023-02-26T08:01:49.338Z,102884.66
2023-02-26T08:04:16.661Z,102886.34
2023-02-26T08:06:43.874Z,102879.25
2023-02-26T08:09:10.831Z,102892.31
2023-02-26T08:11:40.723Z,102898.50
2023-02-26T08:14:08.306Z,102891.34
2023-02-26T08:16:35.274Z,102895.72
2023-02-26T08:19:02.930Z,102897.47
2023-02-26T08:21:29.835Z,102900.94
2023-02-26T08:23:56.873Z,102899.13
2023-02-26T08:26:24.276Z,102898.22
2023-02-26T08:28:51.482Z,102902.63
2023-02-26T08:31:18.619Z,102901.69
2023-02-26T08:33:46.013Z,102912.22
2023-02-26T08:36:13.119Z,102918.34
2023-02-26T08:38:40.173Z,102920.94
2023-02-26T08:41:07.004Z,102923.59
2023-02-26T08:43:34.087Z,102928.00
2023-02-26T08:46:01.041Z,102937.78
2023-02-26T08:48:28.131Z,102940.34
2023-02-26T08:50:55.026Z,102943.91
2023-02-26T08:53:22.143Z,102949.13
2023-02-26T08:55:50.803Z,102949.00
2023-02-26T08:58:18.282Z,102950.75
2023-02-26T09:00:45.801Z,102944.50
2023-02-26T09:03:13.214Z,102953.41
2023-02-26T09:05:41.193Z,102960.34
2023-02-26T09:08:08.990Z,102955.94
2023-02-26T09:10:35.998Z,102959.38
2023-02-26T09:13:02.975Z,102962.88
2023-02-26T09:15:29.874Z,102956.59
2023-02-26T09:17:56.971Z,102959.09
2023-02-26T09:20:23.868Z,102968.72
2023-02-26T09:22:50.727Z,102970.41
2023-02-26T09:25:18.152Z,102973.81
2023-02-26T09:27:45.167Z,102973.78
2023-02-26T09:30:12.954Z,102969.31
2023-02-26T09:32:40.009Z,102976.16
2023-02-26T09:35:07.331Z,102984.00
2023-02-26T09:37:34.408Z,102981.28
2023-02-26T09:40:01.533Z,102984.81
2023-02-26T09:42:31.573Z,102980.34
2023-02-26T09:45:00.385Z,102982.00
2023-02-26T09:47:42.148Z,102988.09
2023-02-26T09:50:21.028Z,102988.03
2023-02-26T09:52:50.803Z,102992.38
2023-02-26T09:55:35.757Z,102998.53
2023-02-26T09:58:05.452Z,102997.91
2023-02-26T10:00:51.081Z,102992.53
2023-02-26T10:03:33.137Z,102994.22
2023-02-26T10:06:15.360Z,102991.44
2023-02-26T10:08:51.284Z,102993.19
2023-02-26T10:11:28.710Z,103008.16
2023-02-26T10:14:05.215Z,102992.13
2023-02-26T10:16:38.600Z,102997.38
2023-02-26T10:19:11.483Z,102991.97
2023-02-26T10:21:49.584Z,102995.44
2023-02-26T10:24:23.454Z,102995.38
2023-02-26T10:27:07.137Z,102998.84
2023-02-26T10:29:41.125Z,103009.38
2023-02-26T10:32:31.270Z,103005.75
2023-02-26T10:35:10.110Z,103012.91
2023-02-26T10:37:44.712Z,103011.22
2023-02-26T10:40:19.174Z,103016.44
2023-02-26T10:43:06.499Z,103018.09
2023-02-26T10:45:39.890Z,103021.56
2023-02-26T10:48:34.560Z,103022.41
2023-02-26T10:51:12.656Z,103025.41
2023-02-26T10:53:42.406Z,103017.34
2023-02-26T10:56:18.262Z,103027.97
2023-02-26T10:58:46.392Z,103036.00
2023-02-26T11:01:22.250Z,103028.84
2023-02-26T11:03:55.200Z,103036.88
2023-02-26T11:06:34.341Z,103036.88
2023-02-26T11:09:03.358Z,103029.88
2023-02-26T11:11:41.732Z,103034.47
2023-02-26T11:14:10.050Z,103031.88
2023-02-26T11:16:43.933Z,103023.84
2023-02-26T11:19:14.897Z,103025.59
2023-02-26T11:21:45.505Z,103032.63
2023-02-26T11:24:20.112Z,103024.72
2023-02-26T11:26:49.212Z,103028.25
2023-02-26T11:29:21.323Z,103027.38
2023-02-26T11:31:51.326Z,103024.78
2023-02-26T11:34:23.798Z,103021.13
2023-02-26T11:36:53.432Z,103032.63
2023-02-26T11:39:27.201Z,103032.69
2023-02-26T11:41:58.672Z,103029.97
2023-02-26T11:44:45.934Z,103037.94
2023-02-26T11:47:13.092Z,103032.63
2023-02-26T11:49:46.535Z,103032.63
2023-02-26T11:52:34.259Z,103028.13
2023-02-26T11:55:04.206Z,103032.53
2023-02-26T11:57:33.094Z,103023.75
2023-02-26T12:00:04.077Z,103025.59
2023-02-26T12:02:38.351Z,103023.28
2023-02-26T12:05:07.392Z,103024.50
2023-02-26T12:07:34.931Z,103022.53
2023-02-26T12:10:02.097Z,103026.22
2023-02-26T12:12:41.908Z,103030.94
2023-02-26T12:15:29.022Z,103037.06
2023-02-26T12:18:15.793Z,103039.09
2023-02-26T12:21:05.660Z,103030.66
2023-02-26T12:23:50.659Z,103030.31
2023-02-26T12:26:51.160Z,103031.91
2023-02-26T12:29:44.361Z,103031.75
2023-02-26T12:32:37.001Z,103035.16
2023-02-26T12:35:19.017Z,103030.59
2023-02-26T12:37:57.952Z,103029.63
2023-02-26T12:40:43.296Z,103025.19
2023-02-26T12:43:45.771Z,103041.06
2023-02-26T12:46:26.062Z,103031.34
2023-02-26T12:49:18.051Z,103039.22
2023-02-26T12:51:47.440Z,103036.44
2023-02-26T12:54:35.378Z,103025.81
2023-02-26T12:57:28.117Z,103025.81
2023-02-26T13:00:16.430Z,103032.00
2023-02-26T13:03:05.564Z,103024.00
2023-02-26T13:05:42.186Z,103026.50
2023-02-26T13:08:36.315Z,103025.66
2023-02-26T13:11:12.108Z,103024.66
2023-02-26T13:13:53.816Z,103031.72
2023-02-26T13:16:37.401Z,103028.13
2023-02-26T13:19:43.515Z,103020.09
2023-02-26T13:22:19.438Z,103016.47
2023-02-26T13:24:49.305Z,103015.56
2023-02-26T13:27:17.705Z,103014.56
2023-02-26T13:29:45.720Z,103022.56
2023-02-26T13:32:18.517Z,103019.03
2023-02-26T13:35:42.366Z,103013.47
2023-02-26T13:38:50.309Z,103025.16
2023-02-26T13:41:29.053Z,103018.28
2023-02-26T13:44:15.751Z,103022.34
2023-02-26T13:47:20.212Z,103015.81
2023-02-26T13:50:16.531Z,103008.94
2023-02-26T13:52:56.709Z,103002.78
2023-02-26T13:55:37.414Z,103016.94
2023-02-26T13:58:41.167Z,103026.56
2023-02-26T14:01:26.958Z,103021.28
2023-02-26T14:04:22.615Z,103031.75
2023-02-26T14:06:52.196Z,103024.88
2023-02-26T14:09:22.020Z,103021.47
2023-02-26T14:12:13.455Z,103016.09
2023-02-26T14:15:00.295Z,103019.88
2023-02-26T14:17:51.736Z,103024.06
2023-02-26T14:20:23.560Z,103016.09
2023-02-26T14:23:13.002Z,103012.56
2023-02-26T14:25:52.474Z,103012.66
2023-02-26T14:28:21.396Z,103011.91
2023-02-26T14:30:52.479Z,103008.47
2023-02-26T14:33:20.307Z,103012.34
2023-02-26T14:35:51.990Z,103019.38
2023-02-26T14:38:24.031Z,103018.88
2023-02-26T14:41:33.044Z,103010.00
2023-02-26T14:44:17.707Z,103013.00
2023-02-26T14:46:46.709Z,103022.28
2023-02-26T14:49:26.294Z,103020.50
2023-02-26T14:52:12.042Z,103012.06
2023-02-26T14:55:15.867Z,103017.75
2023-02-26T14:57:45.812Z,103014.59
2023-02-26T15:00:19.327Z,103015.72
2023-02-26T15:03:12.413Z,103011.56
2023-02-26T15:06:17.113Z,103011.91
2023-02-26T15:08:49.616Z,103011.59
2023-02-26T15:11:42.549Z,103020.97
2023-02-26T15:14:50.002Z,103019.72
2023-02-26T15:17:26.310Z,103023.16
2023-02-26T15:20:12.186Z,103018.97
2023-02-26T15:22:54.909Z,103023.72
2023-02-26T15:25:28.086Z,103022.53
2023-02-26T15:27:55.534Z,103029.34
2023-02-26T15:30:24.723Z,103024.63
2023-02-26T15:32:58.347Z,103033.94
2023-02-26T15:35:29.484Z,103023.75
2023-02-26T15:37:58.408Z,103023.31
2023-02-26T15:40:29.462Z,103025.78
2023-02-26T15:42:57.511Z,103014.06
2023-02-26T15:45:36.662Z,103015.63
2023-02-26T15:48:11.001Z,103016.44
2023-02-26T15:50:44.277Z,103015.34
2023-02-26T15:53:38.648Z,103019.53
2023-02-26T15:56:13.190Z,103014.00
2023-02-26T15:58:46.802Z,103026.25
2023-02-26T16:01:18.976Z,103015.59
2023-02-26T16:03:46.801Z,103023.56
2023-02-26T16:06:21.405Z,103009.41
2023-02-26T16:08:48.396Z,103025.44
2023-02-26T16:11:16.787Z,103015.50
2023-02-26T16:13:44.805Z,103027.75
2023-02-26T16:16:52.171Z,103018.66
2023-02-26T16:19:24.033Z,103027.44
2023-02-26T16:21:56.565Z,103034.63
2023-02-26T16:24:23.874Z,103036.03
2023-02-26T16:26:57.148Z,103042.25
2023-02-26T16:29:30.188Z,103050.41
2023-02-26T16:32:01.988Z,103055.56
2023-02-26T16:34:37.880Z,103045.00
2023-02-26T16:37:24.878Z,103052.13
2023-02-26T16:39:56.681Z,103058.91
2023-02-26T16:42:38.789Z,103057.22
2023-02-26T16:45:40.933Z,103053.69
2023-02-26T16:48:15.988Z,103055.72
2023-02-26T16:50:43.349Z,103051.66
2023-02-26T16:53:18.231Z,103052.75
2023-02-26T16:55:55.236Z,103054.06
2023-02-26T16:58:23.982Z,103053.88
2023-02-26T17:01:00.348Z,103049.13
2023-02-26T17:03:30.170Z,103050.78
2023-02-26T17:06:01.398Z,103053.34
2023-02-26T17:08:42.861Z,103056.03
2023-02-26T17:11:20.683Z,103050.50
2023-02-26T17:14:02.993Z,103055.03
2023-02-26T17:16:30.223Z,103055.84
2023-02-26T17:18:57.348Z,103054.09
2023-02-26T17:21:24.798Z,103049.69
2023-02-26T17:23:52.021Z,103040.94
2023-02-26T17:26:19.277Z,103058.66
2023-02-26T17:28:46.204Z,103064.97
2023-02-26T17:31:13.840Z,103067.47
2023-02-26T17:33:45.296Z,103061.25
2023-02-26T17:36:16.849Z,103065.63
2023-02-26T17:38:47.338Z,103066.41
2023-02-26T17:41:18.830Z,103062.03
2023-02-26T17:43:45.939Z,103063.00
2023-02-26T17:46:13.261Z,103069.25
2023-02-26T17:48:40.513Z,103074.66
2023-02-26T17:51:09.775Z,103073.59
2023-02-26T17:53:41.192Z,103068.34
2023-02-26T17:56:38.002Z,103077.13
2023-02-26T17:59:07.434Z,103082.47
2023-02-26T18:01:34.586Z,103086.09
2023-02-26T18:04:04.052Z,103081.88
2023-02-26T18:06:35.089Z,103086.81
2023-02-26T18:09:05.267Z,103091.13
2023-02-26T18:11:33.657Z,103090.28
2023-02-26T18:14:01.782Z,103091.94
2023-02-26T18:16:33.709Z,103101.78
2023-02-26T18:19:02.469Z,103101.19
2023-02-26T18:21:29.853Z,103103.00
2023-02-26T18:23:58.022Z,103099.84
2023-02-26T18:26:28.018Z,103100.13
2023-02-26T18:28:56.162Z,103100.78
2023-02-26T18:31:25.237Z,103103.56
2023-02-26T18:33:52.723Z,103093.88
2023-02-26T18:36:36.015Z,103103.59
2023-02-26T18:39:06.143Z,103108.13
2023-02-26T18:41:33.504Z,103103.78
2023-02-26T18:44:00.965Z,103118.94
2023-02-26T18:46:28.707Z,103108.13
2023-02-26T18:48:56.586Z,103118.94
2023-02-26T18:51:23.653Z,103117.66
2023-02-26T18:53:50.718Z,103109.66
2023-02-26T18:56:18.405Z,103111.44
2023-02-26T18:58:45.647Z,103116.72
2023-02-26T19:01:13.040Z,103118.50
2023-02-26T19:03:40.339Z,103121.78
2023-02-26T19:06:11.939Z,103126.28
2023-02-26T19:08:39.198Z,103125.28
2023-02-26T19:11:07.244Z,103124.44
2023-02-26T19:13:34.614Z,103115.59
2023-02-26T19:16:02.085Z,103118.06
2023-02-26T19:18:29.907Z,103116.19
2023-02-26T19:20:57.100Z,103122.31
2023-02-26T19:23:24.829Z,103114.34
2023-02-26T19:25:53.124Z,103112.25
2023-02-26T19:28:21.968Z,103124.63
2023-02-26T19:30:49.108Z,103119.13
2023-02-26T19:33:20.775Z,103121.63
2023-02-26T19:35:51.296Z,103111.75
2023-02-26T19:38:24.665Z,103112.53
2023-02-26T19:40:52.307Z,103123.19
2023-02-26T19:43:19.514Z,103123.03
2023-02-26T19:45:47.398Z,103117.88
2023-02-26T19:48:15.225Z,103128.50
2023-02-26T19:50:43.141Z,103129.31
2023-02-26T19:53:10.392Z,103131.88
2023-02-26T19:55:37.846Z,103131.69
2023-02-26T19:58:06.490Z,103134.34
2023-02-26T20:00:34.302Z,103140.50
2023-02-26T20:03:01.471Z,103133.22
2023-02-26T20:05:28.771Z,103133.16
2023-02-26T20:07:56.814Z,103131.44
2023-02-26T20:10:29.725Z,103134.97
2023-02-26T20:13:01.814Z,103122.59
2023-02-26T20:15:29.462Z,103133.22
2023-02-26T20:17:58.666Z,103131.47
2023-02-26T20:20:27.239Z,103135.13
2023-02-26T20:22:54.781Z,103131.09
2023-02-26T20:25:24.948Z,103131.75
2023-02-26T20:27:53.030Z,103137.00
2023-02-26T20:30:21.330Z,103141.56
2023-02-26T20:32:49.196Z,103137.06
2023-02-26T20:35:16.701Z,103151.25
2023-02-26T20:37:45.058Z,103155.41
2023-02-26T20:40:14.370Z,103148.88
2023-02-26T20:42:41.609Z,103154.81
2023-02-26T20:45:09.152Z,103151.25
2023-02-26T20:47:36.888Z,103147.78
2023-02-26T20:50:06.097Z,103148.69
2023-02-26T20:52:34.775Z,103161.09
2023-02-26T20:55:02.611Z,103166.63
2023-02-26T20:57:32.971Z,103155.09
2023-02-26T21:00:00.725Z,103161.28
2023-02-26T21:02:28.239Z,103167.59
2023-02-26T21:04:58.524Z,103164.88
2023-02-26T21:07:26.145Z,103169.31
2023-02-26T21:09:55.802Z,103174.63
2023-02-26T21:12:23.522Z,103175.50
2023-02-26T21:14:57.099Z,103165.72
2023-02-26T21:17:25.878Z,103166.53
2023-02-26T21:19:54.723Z,103174.50
2023-02-26T21:22:23.683Z,103168.16
2023-02-26T21:24:53.437Z,103178.78
2023-02-26T21:27:20.725Z,103179.75
2023-02-26T21:29:48.013Z,103179.59
2023-02-26T21:32:16.268Z,103187.59
2023-02-26T21:34:43.320Z,103183.25
2023-02-26T21:37:12.473Z,103187.88
2023-02-26T21:39:40.336Z,103178.16
2023-02-26T21:42:11.971Z,103182.53
2023-02-26T21:44:40.992Z,103192.22
2023-02-26T21:47:10.664Z,103185.06
2023-02-26T21:49:38.258Z,103184.22
2023-02-26T21:52:07.732Z,103187.72
2023-02-26T21:54:35.085Z,103182.41
2023-02-26T21:57:02.199Z,103182.41
2023-02-26T21:59:29.323Z,103186.06
2023-02-26T22:01:56.881Z,103193.06
2023-02-26T22:04:24.050Z,103194.03
2023-02-26T22:06:51.224Z,103197.72
2023-02-26T22:09:21.779Z,103206.97
2023-02-26T22:11:48.872Z,103204.56
2023-02-26T22:14:15.959Z,103212.94
2023-02-26T22:16:43.030Z,103214.16
2023-02-26T22:19:10.589Z,103218.03
2023-02-26T22:21:37.704Z,103217.31
2023-02-26T22:24:05.913Z,103214.66
2023-02-26T22:26:33.339Z,103217.47
2023-02-26T22:29:01.120Z,103215.94
2023-02-26T22:31:29.720Z,103222.34
2023-02-26T22:33:58.578Z,103230.50
2023-02-26T22:36:26.205Z,103219.22
2023-02-26T22:38:53.444Z,103225.50
2023-02-26T22:41:20.323Z,103223.88
2023-02-26T22:43:47.391Z,103225.91
2023-02-26T22:46:14.290Z,103218.88
2023-02-26T22:48:43.754Z,103220.69
2023-02-26T22:51:10.931Z,103223.63
2023-02-26T22:53:38.037Z,103231.78
2023-02-26T22:56:05.235Z,103232.94
2023-02-26T22:58:32.260Z,103234.81
2023-02-26T23:01:07.162Z,103236.81
2023-02-26T23:03:34.486Z,103235.16
2023-02-26T23:06:01.457Z,103247.63
2023-02-26T23:08:28.579Z,103238.97
2023-02-26T23:10:57.920Z,103240.88
2023-02-26T23:13:25.898Z,103245.31
2023-02-26T23:15:53.409Z,103241.97
2023-02-26T23:18:20.374Z,103247.41
2023-02-26T23:20:49.230Z,103253.75
2023-02-26T23:23:17.166Z,103249.41
2023-02-26T23:25:44.897Z,103247.75
2023-02-26T23:28:12.177Z,103244.28
2023-02-26T23:30:39.592Z,103248.81
2023-02-26T23:33:07.560Z,103256.88
2023-02-26T23:35:35.628Z,103260.50
2023-02-26T23:38:02.816Z,103251.75
2023-02-26T23:40:30.199Z,103265.97
2023-02-26T23:42:57.092Z,103267.88
2023-02-26T23:45:24.430Z,103262.63
2023-02-26T23:47:51.678Z,103277.72
2023-02-26T23:50:18.717Z,103274.28
2023-02-26T23:52:45.730Z,103278.78
2023-02-26T23:55:12.969Z,103284.16
2023-02-26T23:57:40.202Z,103286.88
